sensor_id;sensor_type;location;lat;lon;timestamp;pressure;altitude;pressure_sealevel;temperature;humidity
3254;BME280;1639;42.804;23.342;2023-12-22T00:01:11;73383.88;;;-148.52;100.00
3254;BME280;1639;42.804;23.342;2023-12-22T00:03:37;73375.59;;;-148.52;100.00
3254;BME280;1639;42.804;23.342;2023-12-22T00:06:02;73365.25;;;-148.52;100.00
3254;BME280;1639;42.804;23.342;2023-12-22T00:08:28;73357.00;;;-148.52;100.00
3254;BME280;1639;42.804;23.342;2023-12-22T00:10:53;73340.44;;;-148.52;100.00
3254;BME280;1639;42.804;23.342;2023-12-22T00:13:19;73334.22;;;-148.52;100.00
3254;BME280;1639;42.804;23.342;2023-12-22T00:15:44;73332.16;;;-148.52;100.00
3254;BME280;1639;42.804;23.342;2023-12-22T00:18:09;73332.16;;;-148.52;100.00
3254;BME280;1639;42.804;23.342;2023-12-22T00:20:35;73321.81;;;-148.52;100.00
3254;BME280;1639;42.804;23.342;2023-12-22T00:23:00;73307.34;;;-148.52;100.00
3254;BME280;1639;42.804;23.342;2023-12-22T00:25:26;73305.28;;;-148.52;100.00
3254;BME280;1639;42.804;23.342;2023-12-22T00:27:51;73307.34;;;-148.52;100.00
3254;BME280;1639;42.804;23.342;2023-12-22T00:30:17;73315.63;;;-148.52;100.00
3254;BME280;1639;42.804;23.342;2023-12-22T00:32:42;73346.66;;;-148.52;100.00
3254;BME280;1639;42.804;23.342;2023-12-22T00:35:08;73359.06;;;-148.52;100.00
3254;BME280;1639;42.804;23.342;2023-12-22T00:37:33;73359.06;;;-148.52;100.00
3254;BME280;1639;42.804;23.342;2023-12-22T00:39:59;73342.50;;;-148.52;100.00
3254;BME280;1639;42.804;23.342;2023-12-22T00:42:24;73352.84;;;-148.52;100.00
3254;BME280;1639;42.804;23.342;2023-12-22T00:44:51;73365.25;;;-148.52;100.00
3254;BME280;1639;42.804;23.342;2023-12-22T00:47:16;73359.06;;;-148.52;100.00
3254;BME280;1639;42.804;23.342;2023-12-22T00:49:41;73363.19;;;-148.52;100.00
3254;BME280;1639;42.804;23.342;2023-12-22T00:52:07;73357.00;;;-148.52;100.00
3254;BME280;1639;42.804;23.342;2023-12-22T00:54:32;73361.13;;;-148.52;100.00
3254;BME280;1639;42.804;23.342;2023-12-22T00:56:58;73352.84;;;-148.52;100.00
3254;BME280;1639;42.804;23.342;2023-12-22T00:59:24;73340.44;;;-148.52;100.00
3254;BME280;1639;42.804;23.342;2023-12-22T01:01:49;73344.56;;;-148.52;100.00
3254;BME280;1639;42.804;23.342;2023-12-22T01:04:14;73328.03;;;-148.52;100.00
3254;BME280;1639;42.804;23.342;2023-12-22T01:06:40;73303.22;;;-148.52;100.00
3254;BME280;1639;42.804;23.342;2023-12-22T01:09:05;73286.66;;;-148.52;100.00
3254;BME280;1639;42.804;23.342;2023-12-22T01:11:31;73265.97;;;-148.52;100.00
3254;BME280;1639;42.804;23.342;2023-12-22T01:13:57;73251.50;;;-148.52;100.00
3254;BME280;1639;42.804;23.342;2023-12-22T01:16:22;73249.44;;;-148.52;100.00
3254;BME280;1639;42.804;23.342;2023-12-22T01:18:49;73245.28;;;-148.52;100.00
3254;BME280;1639;42.804;23.342;2023-12-22T01:21:18;73241.16;;;-148.52;100.00
3254;BME280;1639;42.804;23.342;2023-12-22T01:23:44;73237.03;;;-148.52;100.00
3254;BME280;1639;42.804;23.342;2023-12-22T01:26:09;73226.69;;;-148.52;100.00
3254;BME280;1639;42.804;23.342;2023-12-22T01:28:35;73218.41;;;-148.52;100.00
3254;BME280;1639;42.804;23.342;2023-12-22T01:31:01;73212.19;;;-148.52;100.00
3254;BME280;1639;42.804;23.342;2023-12-22T01:33:26;73220.47;;;-148.52;100.00
3254;BME280;1639;42.804;23.342;2023-12-22T01:35:52;73232.88;;;-148.52;100.00
3254;BME280;1639;42.804;23.342;2023-12-22T01:38:17;73220.47;;;-148.52;100.00
3254;BME280;1639;42.804;23.342;2023-12-22T01:40:43;73191.53;;;-148.52;100.00
3254;BME280;1639;42.804;23.342;2023-12-22T01:43:08;73177.03;;;-148.52;100.00
3254;BME280;1639;42.804;23.342;2023-12-22T01:45:34;73179.09;;;-148.52;100.00
3254;BME280;1639;42.804;23.342;2023-12-22T01:48:00;73187.38;;;-148.52;100.00
3254;BME280;1639;42.804;23.342;2023-12-22T01:50:26;73208.06;;;-148.52;100.00
3254;BME280;1639;42.804;23.342;2023-12-22T01:52:52;73203.94;;;-148.52;100.00
3254;BME280;1639;42.804;23.342;2023-12-22T01:55:18;73191.53;;;-148.52;100.00
3254;BME280;1639;42.804;23.342;2023-12-22T01:57:44;73191.53;;;-148.52;100.00
3254;BME280;1639;42.804;23.342;2023-12-22T02:00:10;73183.25;;;-148.52;100.00
3254;BME280;1639;42.804;23.342;2023-12-22T02:02:36;73187.38;;;-148.52;100.00
3254;BME280;1639;42.804;23.342;2023-12-22T02:05:04;73181.19;;;-148.52;100.00
3254;BME280;1639;42.804;23.342;2023-12-22T02:07:29;73183.25;;;-148.52;100.00
3254;BME280;1639;42.804;23.342;2023-12-22T02:09:54;73183.25;;;-148.52;100.00
3254;BME280;1639;42.804;23.342;2023-12-22T02:12:20;73183.25;;;-148.52;100.00
3254;BME280;1639;42.804;23.342;2023-12-22T02:14:46;73181.19;;;-148.52;100.00
3254;BME280;1639;42.804;23.342;2023-12-22T02:17:16;73185.31;;;-148.52;100.00
3254;BME280;1639;42.804;23.342;2023-12-22T02:19:47;73174.97;;;-148.52;100.00
3254;BME280;1639;42.804;23.342;2023-12-22T02:22:14;73189.44;;;-148.52;100.00
3254;BME280;1639;42.804;23.342;2023-12-22T02:24:40;73193.59;;;-148.52;100.00
3254;BME280;1639;42.804;23.342;2023-12-22T02:29:52;73168.75;;;-148.52;100.00
3254;BME280;1639;42.804;23.342;2023-12-22T02:32:30;73156.34;;;-148.52;100.00
3254;BME280;1639;42.804;23.342;2023-12-22T02:34:56;73143.94;;;-148.52;100.00
3254;BME280;1639;42.804;23.342;2023-12-22T02:37:23;73137.75;;;-148.52;100.00
3254;BME280;1639;42.804;23.342;2023-12-22T02:39:51;73141.88;;;-148.52;100.00
3254;BME280;1639;42.804;23.342;2023-12-22T02:42:17;73146.00;;;-148.52;100.00
3254;BME280;1639;42.804;23.342;2023-12-22T02:44:42;73179.09;;;-148.52;100.00
3254;BME280;1639;42.804;23.342;2023-12-22T02:47:08;73208.06;;;-148.52;100.00
3254;BME280;1639;42.804;23.342;2023-12-22T02:49:33;73239.09;;;-148.52;100.00
3254;BME280;1639;42.804;23.342;2023-12-22T02:51:58;73263.91;;;-148.52;100.00
3254;BME280;1639;42.804;23.342;2023-12-22T02:54:24;73253.56;;;-148.52;100.00
3254;BME280;1639;42.804;23.342;2023-12-22T02:56:49;73222.53;;;-148.52;100.00
3254;BME280;1639;42.804;23.342;2023-12-22T02:59:14;73187.38;;;-148.52;100.00
3254;BME280;1639;42.804;23.342;2023-12-22T03:01:40;73162.56;;;-148.52;100.00
3254;BME280;1639;42.804;23.342;2023-12-22T03:04:05;73146.00;;;-148.52;100.00
3254;BME280;1639;42.804;23.342;2023-12-22T03:06:31;73137.75;;;-148.52;100.00
3254;BME280;1639;42.804;23.342;2023-12-22T03:08:56;73137.75;;;-148.52;100.00
3254;BME280;1639;42.804;23.342;2023-12-22T03:11:21;73123.25;;;-148.52;100.00
3254;BME280;1639;42.804;23.342;2023-12-22T03:13:47;73110.84;;;-148.52;100.00
3254;BME280;1639;42.804;23.342;2023-12-22T03:16:12;73125.34;;;-148.52;100.00
3254;BME280;1639;42.804;23.342;2023-12-22T03:18:38;73121.19;;;-148.52;100.00
3254;BME280;1639;42.804;23.342;2023-12-22T03:21:04;73117.06;;;-148.52;100.00
3254;BME280;1639;42.804;23.342;2023-12-22T03:23:30;73146.00;;;-148.52;100.00
3254;BME280;1639;42.804;23.342;2023-12-22T03:25:55;73148.09;;;-148.52;100.00
3254;BME280;1639;42.804;23.342;2023-12-22T03:28:21;73146.00;;;-148.52;100.00
3254;BME280;1639;42.804;23.342;2023-12-22T03:30:46;73162.56;;;-148.52;100.00
3254;BME280;1639;42.804;23.342;2023-12-22T03:33:11;73143.94;;;-148.52;100.00
3254;BME280;1639;42.804;23.342;2023-12-22T03:35:37;73131.53;;;-148.52;100.00
3254;BME280;1639;42.804;23.342;2023-12-22T03:38:02;73125.34;;;-148.52;100.00
3254;BME280;1639;42.804;23.342;2023-12-22T03:40:28;73108.78;;;-148.52;100.00
3254;BME280;1639;42.804;23.342;2023-12-22T03:42:55;73090.16;;;-148.52;100.00
3254;BME280;1639;42.804;23.342;2023-12-22T03:45:20;73086.03;;;-148.52;100.00
3254;BME280;1639;42.804;23.342;2023-12-22T03:47:45;73090.16;;;-148.52;100.00
3254;BME280;1639;42.804;23.342;2023-12-22T03:50:11;73086.03;;;-148.52;100.00
3254;BME280;1639;42.804;23.342;2023-12-22T03:52:36;73083.97;;;-148.52;100.00
3254;BME280;1639;42.804;23.342;2023-12-22T03:55:02;73069.50;;;-148.52;100.00
3254;BME280;1639;42.804;23.342;2023-12-22T03:57:27;73061.22;;;-148.52;100.00
3254;BME280;1639;42.804;23.342;2023-12-22T03:59:53;73059.16;;;-148.52;100.00
3254;BME280;1639;42.804;23.342;2023-12-22T04:02:18;73055.00;;;-148.52;100.00
3254;BME280;1639;42.804;23.342;2023-12-22T04:04:44;73050.88;;;-148.52;100.00
3254;BME280;1639;42.804;23.342;2023-12-22T04:07:09;73044.66;;;-148.52;100.00
3254;BME280;1639;42.804;23.342;2023-12-22T04:09:36;73032.25;;;-148.52;100.00
3254;BME280;1639;42.804;23.342;2023-12-22T04:12:02;73026.06;;;-148.52;100.00
3254;BME280;1639;42.804;23.342;2023-12-22T04:14:28;73017.78;;;-148.52;100.00
3254;BME280;1639;42.804;23.342;2023-12-22T04:16:53;73009.50;;;-148.52;100.00
3254;BME280;1639;42.804;23.342;2023-12-22T04:19:19;73005.38;;;-148.52;100.00
3254;BME280;1639;42.804;23.342;2023-12-22T04:21:44;72992.97;;;-148.52;100.00
3254;BME280;1639;42.804;23.342;2023-12-22T04:24:09;73009.50;;;-148.52;100.00
3254;BME280;1639;42.804;23.342;2023-12-22T04:26:35;73021.91;;;-148.52;100.00
3254;BME280;1639;42.804;23.342;2023-12-22T04:29:01;73017.78;;;-148.52;100.00
3254;BME280;1639;42.804;23.342;2023-12-22T04:31:26;73019.84;;;-148.52;100.00
3254;BME280;1639;42.804;23.342;2023-12-22T04:33:52;73009.50;;;-148.52;100.00
3254;BME280;1639;42.804;23.342;2023-12-22T04:36:17;73015.72;;;-148.52;100.00
3254;BME280;1639;42.804;23.342;2023-12-22T04:38:42;73026.06;;;-148.52;100.00
3254;BME280;1639;42.804;23.342;2023-12-22T04:41:08;73003.31;;;-148.52;100.00
3254;BME280;1639;42.804;23.342;2023-12-22T04:43:33;73005.38;;;-148.52;100.00
3254;BME280;1639;42.804;23.342;2023-12-22T04:45:58;72995.03;;;-148.52;100.00
3254;BME280;1639;42.804;23.342;2023-12-22T04:48:24;72984.69;;;-148.52;100.00
3254;BME280;1639;42.804;23.342;2023-12-22T04:50:49;72968.16;;;-148.52;100.00
3254;BME280;1639;42.804;23.342;2023-12-22T04:53:14;72970.22;;;-148.52;100.00
3254;BME280;1639;42.804;23.342;2023-12-22T04:55:40;72957.81;;;-148.52;100.00
3254;BME280;1639;42.804;23.342;2023-12-22T04:58:05;72966.06;;;-148.52;100.00
3254;BME280;1639;42.804;23.342;2023-12-22T05:00:31;72972.28;;;-148.52;100.00
3254;BME280;1639;42.804;23.342;2023-12-22T05:02:56;72964.00;;;-148.52;100.00
3254;BME280;1639;42.804;23.342;2023-12-22T05:05:21;72978.50;;;-148.52;100.00
3254;BME280;1639;42.804;23.342;2023-12-22T05:07:47;73007.44;;;-148.52;100.00
3254;BME280;1639;42.804;23.342;2023-12-22T05:10:12;73017.78;;;-148.52;100.00
3254;BME280;1639;42.804;23.342;2023-12-22T05:12:37;73028.13;;;-148.52;100.00
3254;BME280;1639;42.804;23.342;2023-12-22T05:15:03;73042.59;;;-148.52;100.00
3254;BME280;1639;42.804;23.342;2023-12-22T05:17:29;73067.41;;;-148.52;100.00
3254;BME280;1639;42.804;23.342;2023-12-22T05:19:54;73050.88;;;-148.52;100.00
3254;BME280;1639;42.804;23.342;2023-12-22T05:22:20;73036.41;;;-148.52;100.00
3254;BME280;1639;42.804;23.342;2023-12-22T05:24:45;73050.88;;;-148.52;100.00
3254;BME280;1639;42.804;23.342;2023-12-22T05:27:11;73050.88;;;-148.52;100.00
3254;BME280;1639;42.804;23.342;2023-12-22T05:29:36;73038.47;;;-148.52;100.00
3254;BME280;1639;42.804;23.342;2023-12-22T05:32:01;73055.00;;;-148.52;100.00
3254;BME280;1639;42.804;23.342;2023-12-22T05:34:27;73052.94;;;-148.52;100.00
3254;BME280;1639;42.804;23.342;2023-12-22T05:36:52;73019.84;;;-148.52;100.00
3254;BME280;1639;42.804;23.342;2023-12-22T05:39:17;73030.19;;;-148.52;100.00
3254;BME280;1639;42.804;23.342;2023-12-22T05:41:43;73026.06;;;-148.52;100.00
3254;BME280;1639;42.804;23.342;2023-12-22T05:44:08;73042.59;;;-148.52;100.00
3254;BME280;1639;42.804;23.342;2023-12-22T05:46:37;73021.91;;;-148.52;100.00
3254;BME280;1639;42.804;23.342;2023-12-22T05:49:03;73021.91;;;-148.52;100.00
3254;BME280;1639;42.804;23.342;2023-12-22T05:51:29;73017.78;;;-148.52;100.00
3254;BME280;1639;42.804;23.342;2023-12-22T05:53:54;73007.44;;;-148.52;100.00
3254;BME280;1639;42.804;23.342;2023-12-22T05:56:20;73026.06;;;-148.52;100.00
3254;BME280;1639;42.804;23.342;2023-12-22T05:58:47;72999.16;;;-148.52;100.00
3254;BME280;1639;42.804;23.342;2023-12-22T06:01:17;72976.41;;;-148.52;100.00
3254;BME280;1639;42.804;23.342;2023-12-22T06:03:46;72961.94;;;-148.52;100.00
3254;BME280;1639;42.804;23.342;2023-12-22T06:06:12;72961.94;;;-148.52;100.00
3254;BME280;1639;42.804;23.342;2023-12-22T06:08:38;72939.19;;;-148.52;100.00
3254;BME280;1639;42.804;23.342;2023-12-22T06:11:04;72904.03;;;-148.52;100.00
3254;BME280;1639;42.804;23.342;2023-12-22T06:13:29;72875.06;;;-148.52;100.00
3254;BME280;1639;42.804;23.342;2023-12-22T06:15:54;72846.13;;;-148.52;100.00
3254;BME280;1639;42.804;23.342;2023-12-22T06:18:20;72819.25;;;-148.52;100.00
3254;BME280;1639;42.804;23.342;2023-12-22T06:20:45;72806.81;;;-148.52;100.00
3254;BME280;1639;42.804;23.342;2023-12-22T06:23:10;72798.56;;;-148.52;100.00
3254;BME280;1639;42.804;23.342;2023-12-22T06:25:36;72786.16;;;-148.52;100.00
3254;BME280;1639;42.804;23.342;2023-12-22T06:28:01;72775.81;;;-148.52;100.00
3254;BME280;1639;42.804;23.342;2023-12-22T06:30:27;72782.00;;;-148.52;100.00
3254;BME280;1639;42.804;23.342;2023-12-22T06:32:52;72773.75;;;-148.52;100.00
3254;BME280;1639;42.804;23.342;2023-12-22T06:35:17;72773.75;;;-148.52;100.00
3254;BME280;1639;42.804;23.342;2023-12-22T06:37:49;72765.47;;;-148.52;100.00
3254;BME280;1639;42.804;23.342;2023-12-22T06:40:14;72765.47;;;-148.52;100.00
3254;BME280;1639;42.804;23.342;2023-12-22T06:42:40;72761.34;;;-148.52;100.00
3254;BME280;1639;42.804;23.342;2023-12-22T06:45:05;72751.00;;;-148.52;100.00
3254;BME280;1639;42.804;23.342;2023-12-22T06:47:31;72744.78;;;-148.52;100.00
3254;BME280;1639;42.804;23.342;2023-12-22T06:49:56;72738.59;;;-148.52;100.00
3254;BME280;1639;42.804;23.342;2023-12-22T06:52:22;72736.50;;;-148.52;100.00
3254;BME280;1639;42.804;23.342;2023-12-22T06:54:47;72715.84;;;-148.52;100.00
3254;BME280;1639;42.804;23.342;2023-12-22T06:57:12;72717.91;;;-148.52;100.00
3254;BME280;1639;42.804;23.342;2023-12-22T06:59:38;72728.25;;;-148.52;100.00
3254;BME280;1639;42.804;23.342;2023-12-22T07:02:04;72711.69;;;-148.52;100.00
3254;BME280;1639;42.804;23.342;2023-12-22T07:04:29;72711.69;;;-148.52;100.00
3254;BME280;1639;42.804;23.342;2023-12-22T07:06:55;72701.34;;;-148.52;100.00
3254;BME280;1639;42.804;23.342;2023-12-22T07:11:49;72695.16;;;-148.52;100.00
3254;BME280;1639;42.804;23.342;2023-12-22T07:14:18;72691.00;;;-148.52;100.00
3254;BME280;1639;42.804;23.342;2023-12-22T07:16:44;72691.00;;;-148.52;100.00
3254;BME280;1639;42.804;23.342;2023-12-22T07:19:10;72699.28;;;-148.52;100.00
3254;BME280;1639;42.804;23.342;2023-12-22T07:21:39;72703.44;;;-148.52;100.00
3254;BME280;1639;42.804;23.342;2023-12-22T07:24:05;72701.34;;;-148.52;100.00
3254;BME280;1639;42.804;23.342;2023-12-22T07:26:30;72691.00;;;-148.52;100.00
3254;BME280;1639;42.804;23.342;2023-12-22T07:28:56;72691.00;;;-148.52;100.00
3254;BME280;1639;42.804;23.342;2023-12-22T07:31:21;72682.75;;;-148.52;100.00
3254;BME280;1639;42.804;23.342;2023-12-22T07:33:47;72672.41;;;-148.52;100.00
3254;BME280;1639;42.804;23.342;2023-12-22T07:36:12;72676.53;;;-148.52;100.00
3254;BME280;1639;42.804;23.342;2023-12-22T07:38:38;72678.59;;;-148.52;100.00
3254;BME280;1639;42.804;23.342;2023-12-22T07:41:07;72674.47;;;-148.52;100.00
3254;BME280;1639;42.804;23.342;2023-12-22T07:43:32;72678.59;;;-148.52;100.00
3254;BME280;1639;42.804;23.342;2023-12-22T07:45:57;72674.47;;;-148.52;100.00
3254;BME280;1639;42.804;23.342;2023-12-22T07:48:23;72668.28;;;-148.52;100.00
3254;BME280;1639;42.804;23.342;2023-12-22T07:50:49;72680.69;;;-148.52;100.00
3254;BME280;1639;42.804;23.342;2023-12-22T07:53:15;72678.59;;;-148.52;100.00
3254;BME280;1639;42.804;23.342;2023-12-22T07:55:40;72678.59;;;-148.52;100.00
3254;BME280;1639;42.804;23.342;2023-12-22T07:58:05;72678.59;;;-148.52;100.00
3254;BME280;1639;42.804;23.342;2023-12-22T08:00:31;72682.75;;;-148.52;100.00
3254;BME280;1639;42.804;23.342;2023-12-22T08:02:57;72682.75;;;-148.52;100.00
3254;BME280;1639;42.804;23.342;2023-12-22T08:05:22;72699.28;;;-148.52;100.00
3254;BME280;1639;42.804;23.342;2023-12-22T08:07:48;72697.22;;;-148.52;100.00
3254;BME280;1639;42.804;23.342;2023-12-22T08:10:13;72711.69;;;-148.52;100.00
3254;BME280;1639;42.804;23.342;2023-12-22T08:12:38;72707.56;;;-148.52;100.00
3254;BME280;1639;42.804;23.342;2023-12-22T08:15:04;72705.50;;;-148.52;100.00
3254;BME280;1639;42.804;23.342;2023-12-22T08:17:30;72713.75;;;-148.52;100.00
3254;BME280;1639;42.804;23.342;2023-12-22T08:19:56;72713.75;;;-148.52;100.00
3254;BME280;1639;42.804;23.342;2023-12-22T08:22:22;72711.69;;;-148.52;100.00
3254;BME280;1639;42.804;23.342;2023-12-22T08:24:48;72711.69;;;-148.52;100.00
3254;BME280;1639;42.804;23.342;2023-12-22T08:27:13;72707.56;;;-148.52;100.00
3254;BME280;1639;42.804;23.342;2023-12-22T08:29:39;72713.75;;;-148.52;100.00
3254;BME280;1639;42.804;23.342;2023-12-22T08:32:04;72715.84;;;-148.52;100.00
3254;BME280;1639;42.804;23.342;2023-12-22T08:34:29;72709.63;;;-148.52;100.00
3254;BME280;1639;42.804;23.342;2023-12-22T08:36:55;72713.75;;;-148.52;100.00
3254;BME280;1639;42.804;23.342;2023-12-22T08:39:20;72703.44;;;-148.52;100.00
3254;BME280;1639;42.804;23.342;2023-12-22T08:41:46;72703.44;;;-148.52;100.00
3254;BME280;1639;42.804;23.342;2023-12-22T08:44:13;72697.22;;;-148.52;100.00
3254;BME280;1639;42.804;23.342;2023-12-22T08:46:41;72699.28;;;-148.52;100.00
3254;BME280;1639;42.804;23.342;2023-12-22T08:49:07;72686.88;;;-148.52;100.00
3254;BME280;1639;42.804;23.342;2023-12-22T08:51:33;72684.81;;;-148.52;100.00
3254;BME280;1639;42.804;23.342;2023-12-22T08:54:01;72686.88;;;-148.52;100.00
3254;BME280;1639;42.804;23.342;2023-12-22T08:56:27;72682.75;;;-148.52;100.00
3254;BME280;1639;42.804;23.342;2023-12-22T08:58:53;72682.75;;;-148.52;100.00
3254;BME280;1639;42.804;23.342;2023-12-22T09:01:21;72678.59;;;-148.52;100.00
3254;BME280;1639;42.804;23.342;2023-12-22T09:03:47;72682.75;;;-148.52;100.00
3254;BME280;1639;42.804;23.342;2023-12-22T09:06:21;72691.00;;;-148.52;100.00
3254;BME280;1639;42.804;23.342;2023-12-22T09:08:47;72686.88;;;-148.52;100.00
3254;BME280;1639;42.804;23.342;2023-12-22T09:11:15;72691.00;;;-148.52;100.00
3254;BME280;1639;42.804;23.342;2023-12-22T09:13:41;72695.16;;;-148.52;100.00
3254;BME280;1639;42.804;23.342;2023-12-22T09:16:07;72699.28;;;-148.52;100.00
3254;BME280;1639;42.804;23.342;2023-12-22T09:18:32;72699.28;;;-148.52;100.00
3254;BME280;1639;42.804;23.342;2023-12-22T09:20:58;72701.34;;;-148.52;100.00
3254;BME280;1639;42.804;23.342;2023-12-22T09:23:24;72695.16;;;-148.52;100.00
3254;BME280;1639;42.804;23.342;2023-12-22T09:25:49;72691.00;;;-148.52;100.00
3254;BME280;1639;42.804;23.342;2023-12-22T09:28:15;72682.75;;;-148.52;100.00
3254;BME280;1639;42.804;23.342;2023-12-22T09:30:40;72672.41;;;-148.52;100.00
3254;BME280;1639;42.804;23.342;2023-12-22T09:33:07;72660.00;;;-148.52;100.00
3254;BME280;1639;42.804;23.342;2023-12-22T09:35:33;72664.13;;;-148.52;100.00
3254;BME280;1639;42.804;23.342;2023-12-22T09:37:58;72668.28;;;-148.52;100.00
3254;BME280;1639;42.804;23.342;2023-12-22T09:40:24;72678.59;;;-148.52;100.00
3254;BME280;1639;42.804;23.342;2023-12-22T09:42:50;72662.06;;;-148.52;100.00
3254;BME280;1639;42.804;23.342;2023-12-22T09:45:19;72662.06;;;-148.52;100.00
3254;BME280;1639;42.804;23.342;2023-12-22T09:47:46;72655.84;;;-148.52;100.00
3254;BME280;1639;42.804;23.342;2023-12-22T09:50:14;72624.84;;;-148.52;100.00
3254;BME280;1639;42.804;23.342;2023-12-22T09:52:42;72591.75;;;-148.52;100.00
3254;BME280;1639;42.804;23.342;2023-12-22T09:55:09;72583.47;;;-148.52;100.00
3254;BME280;1639;42.804;23.342;2023-12-22T09:57:36;72587.63;;;-148.52;100.00
3254;BME280;1639;42.804;23.342;2023-12-22T10:00:03;72581.41;;;-148.52;100.00
3254;BME280;1639;42.804;23.342;2023-12-22T10:02:33;72581.41;;;-148.52;100.00
3254;BME280;1639;42.804;23.342;2023-12-22T10:04:59;72566.94;;;-148.52;100.00
3254;BME280;1639;42.804;23.342;2023-12-22T10:07:25;72558.66;;;-148.52;100.00
3254;BME280;1639;42.804;23.342;2023-12-22T10:09:52;72548.31;;;-148.52;100.00
3254;BME280;1639;42.804;23.342;2023-12-22T10:12:19;72542.13;;;-148.52;100.00
3254;BME280;1639;42.804;23.342;2023-12-22T10:14:47;72527.66;;;-148.52;100.00
3254;BME280;1639;42.804;23.342;2023-12-22T10:17:12;72521.44;;;-148.52;100.00
3254;BME280;1639;42.804;23.342;2023-12-22T10:19:39;72519.38;;;-148.52;100.00
3254;BME280;1639;42.804;23.342;2023-12-22T10:22:04;72517.31;;;-148.52;100.00
3254;BME280;1639;42.804;23.342;2023-12-22T10:24:43;72513.16;;;-148.52;100.00
3254;BME280;1639;42.804;23.342;2023-12-22T10:27:10;72490.41;;;-148.52;100.00
3254;BME280;1639;42.804;23.342;2023-12-22T10:29:36;72480.09;;;-148.52;100.00
3254;BME280;1639;42.804;23.342;2023-12-22T10:32:02;72471.81;;;-148.52;100.00
3254;BME280;1639;42.804;23.342;2023-12-22T10:34:28;72469.75;;;-148.52;100.00
3254;BME280;1639;42.804;23.342;2023-12-22T10:36:54;72461.47;;;-148.52;100.00
3254;BME280;1639;42.804;23.342;2023-12-22T10:39:19;72442.84;;;-148.52;100.00
3254;BME280;1639;42.804;23.342;2023-12-22T10:41:46;72430.44;;;-148.52;100.00
3254;BME280;1639;42.804;23.342;2023-12-22T10:44:12;72415.97;;;-148.52;100.00
3254;BME280;1639;42.804;23.342;2023-12-22T10:46:37;72413.91;;;-148.52;100.00
3254;BME280;1639;42.804;23.342;2023-12-22T10:49:02;72401.50;;;-148.52;100.00
3254;BME280;1639;42.804;23.342;2023-12-22T10:51:29;72389.09;;;-148.52;100.00
3254;BME280;1639;42.804;23.342;2023-12-22T10:53:58;72376.69;;;-148.52;100.00
3254;BME280;1639;42.804;23.342;2023-12-22T10:56:24;72376.69;;;-148.52;100.00
3254;BME280;1639;42.804;23.342;2023-12-22T10:58:51;72393.22;;;-148.52;100.00
3254;BME280;1639;42.804;23.342;2023-12-22T11:01:18;72389.09;;;-148.52;100.00
3254;BME280;1639;42.804;23.342;2023-12-22T11:03:48;72382.88;;;-148.52;100.00
3254;BME280;1639;42.804;23.342;2023-12-22T11:06:15;72384.97;;;-148.52;100.00
3254;BME280;1639;42.804;23.342;2023-12-22T11:08:43;72366.34;;;-148.52;100.00
3254;BME280;1639;42.804;23.342;2023-12-22T11:11:24;72345.66;;;-148.52;100.00
3254;BME280;1639;42.804;23.342;2023-12-22T11:13:53;72349.81;;;-148.52;100.00
3254;BME280;1639;42.804;23.342;2023-12-22T11:16:21;72347.72;;;-148.52;100.00
3254;BME280;1639;42.804;23.342;2023-12-22T11:18:49;72358.06;;;-148.52;100.00
3254;BME280;1639;42.804;23.342;2023-12-22T11:21:15;72360.13;;;-148.52;100.00
3254;BME280;1639;42.804;23.342;2023-12-22T11:23:41;72368.41;;;-148.52;100.00
3254;BME280;1639;42.804;23.342;2023-12-22T11:26:09;72368.41;;;-148.52;100.00
3254;BME280;1639;42.804;23.342;2023-12-22T11:28:38;72378.75;;;-148.52;100.00
3254;BME280;1639;42.804;23.342;2023-12-22T11:31:07;72378.75;;;-148.52;100.00
3254;BME280;1639;42.804;23.342;2023-12-22T11:33:36;72372.56;;;-148.52;100.00
3254;BME280;1639;42.804;23.342;2023-12-22T11:36:03;72372.56;;;-148.52;100.00
3254;BME280;1639;42.804;23.342;2023-12-22T11:38:29;72370.47;;;-148.52;100.00
3254;BME280;1639;42.804;23.342;2023-12-22T11:40:54;72382.88;;;-148.52;100.00
3254;BME280;1639;42.804;23.342;2023-12-22T11:43:21;72393.22;;;-148.52;100.00
3254;BME280;1639;42.804;23.342;2023-12-22T11:45:49;72387.03;;;-148.52;100.00
3254;BME280;1639;42.804;23.342;2023-12-22T11:48:15;72378.75;;;-148.52;100.00
3254;BME280;1639;42.804;23.342;2023-12-22T11:50:41;72372.56;;;-148.52;100.00
3254;BME280;1639;42.804;23.342;2023-12-22T11:53:29;72360.13;;;-148.52;100.00
3254;BME280;1639;42.804;23.342;2023-12-22T11:56:01;72351.88;;;-148.52;100.00
3254;BME280;1639;42.804;23.342;2023-12-22T11:58:47;72345.66;;;-148.52;100.00
3254;BME280;1639;42.804;23.342;2023-12-22T12:01:23;72339.47;;;-148.52;100.00
3254;BME280;1639;42.804;23.342;2023-12-22T12:04:01;72347.72;;;-148.52;100.00
3254;BME280;1639;42.804;23.342;2023-12-22T12:08:55;72343.59;;;-148.52;100.00
3254;BME280;1639;42.804;23.342;2023-12-22T12:11:22;72347.72;;;-148.52;100.00
3254;BME280;1639;42.804;23.342;2023-12-22T12:13:49;72339.47;;;-148.52;100.00
3254;BME280;1639;42.804;23.342;2023-12-22T12:16:18;72335.31;;;-148.52;100.00
3254;BME280;1639;42.804;23.342;2023-12-22T12:18:44;72333.25;;;-148.52;100.00
3254;BME280;1639;42.804;23.342;2023-12-22T12:21:10;72335.31;;;-148.52;100.00
3254;BME280;1639;42.804;23.342;2023-12-22T12:23:37;72333.25;;;-148.52;100.00
3254;BME280;1639;42.804;23.342;2023-12-22T12:26:05;72329.13;;;-148.52;100.00
3254;BME280;1639;42.804;23.342;2023-12-22T12:28:32;72339.47;;;-148.52;100.00
3254;BME280;1639;42.804;23.342;2023-12-22T12:31:03;72327.06;;;-148.52;100.00
3254;BME280;1639;42.804;23.342;2023-12-22T12:33:29;72347.72;;;-148.52;100.00
3254;BME280;1639;42.804;23.342;2023-12-22T12:36:02;72353.94;;;-148.52;100.00
3254;BME280;1639;42.804;23.342;2023-12-22T12:39:01;72351.88;;;-148.52;100.00
3254;BME280;1639;42.804;23.342;2023-12-22T12:41:36;72360.13;;;-148.52;100.00
3254;BME280;1639;42.804;23.342;2023-12-22T12:44:06;72364.28;;;-148.52;100.00